Time;durP1;ratioP1;P1;durP2;ratioP2;P2;SDS_P1;SDS_P2;PMS_P1;PMS_P2;Temp;Humidity;BMP_temperature;BMP_pressure;BME280_temperature;BME280_humidity;BME280_pressure;Samples;Min_cycle;Max_cycle;Signal;HPM_P1;HPM_P2
2023/09/27 00:00:09;;;;;;;24.92;20.60;;;;;;;17.04;100.00;101366.50;5063455;28;20110;-74
2023/09/27 00:02:42;;;;;;;24.98;19.08;;;;;;;17.04;100.00;101361.19;5064373;28;20054;-73
2023/09/27 00:05:11;;;;;;;30.00;22.52;;;;;;;17.00;100.00;101358.88;5067069;28;20056;-74
2023/09/27 00:07:41;;;;;;;25.48;20.98;;;;;;;16.99;100.00;101363.34;5048973;28;20149;-75
2023/09/27 00:10:14;;;;;;;24.60;21.23;;;;;;;16.97;100.00;101354.63;5066301;28;20049;-74
2023/09/27 00:12:51;;;;;;;26.63;20.40;;;;;;;16.93;100.00;101363.78;5061372;28;20123;-75
2023/09/27 00:15:19;;;;;;;23.35;19.35;;;;;;;16.87;100.00;101365.09;5031681;28;20051;-71
2023/09/27 00:17:48;;;;;;;23.23;19.50;;;;;;;16.84;100.00;101365.34;5068238;28;20040;-71
2023/09/27 00:20:17;;;;;;;23.52;20.83;;;;;;;16.81;100.00;101356.72;5062721;28;20053;-70
2023/09/27 00:22:45;;;;;;;26.13;20.95;;;;;;;16.80;100.00;101366.53;5068259;28;20041;-70
2023/09/27 00:25:14;;;;;;;24.65;19.90;;;;;;;16.76;100.00;101369.53;5067360;28;20533;-72
2023/09/27 00:27:42;;;;;;;22.73;19.60;;;;;;;16.71;100.00;101370.66;5060466;28;20144;-73
2023/09/27 00:30:17;;;;;;;24.35;20.15;;;;;;;16.69;100.00;101369.06;5072018;28;20536;-75
2023/09/27 00:32:46;;;;;;;22.45;19.50;;;;;;;16.68;100.00;101372.69;5064052;28;20071;-77
2023/09/27 00:35:22;;;;;;;23.95;19.10;;;;;;;16.67;100.00;101368.34;5064006;28;20052;-74
2023/09/27 00:37:53;;;;;;;;;;;;;;;16.65;100.00;101371.09;5069210;28;20114;-80
2023/09/27 00:40:24;;;;;;;25.58;19.73;;;;;;;16.62;100.00;101370.50;5067517;28;19921;-79
2023/09/27 00:42:57;;;;;;;21.53;19.27;;;;;;;16.59;100.00;101368.03;5049342;28;20061;-79
2023/09/27 00:45:27;;;;;;;27.17;20.10;;;;;;;16.56;100.00;101363.78;5074481;28;20074;-80
2023/09/27 00:48:06;;;;;;;23.58;19.02;;;;;;;16.52;100.00;101362.31;5080337;28;20036;-70
2023/09/27 00:50:33;;;;;;;23.77;20.40;;;;;;;16.49;100.00;101362.53;5064968;28;20114;-70
2023/09/27 00:53:01;;;;;;;24.73;21.92;;;;;;;16.49;100.00;101361.69;5070485;28;20048;-70
2023/09/27 00:55:28;;;;;;;24.77;20.58;;;;;;;16.49;100.00;101359.03;5048741;28;20072;-72
2023/09/27 00:57:55;;;;;;;28.58;20.60;;;;;;;16.48;100.00;101359.97;5066730;28;20491;-73
2023/09/27 01:00:23;;;;;;;28.45;19.73;;;;;;;16.45;100.00;101366.38;5050017;28;20036;-72
2023/09/27 01:02:50;;;;;;;22.85;20.42;;;;;;;16.43;100.00;101355.00;5033927;28;20750;-73
2023/09/27 01:05:18;;;;;;;25.73;19.63;;;;;;;16.40;100.00;101357.91;5065638;28;20036;-70
2023/09/27 01:07:46;;;;;;;25.85;21.40;;;;;;;16.39;100.00;101353.50;5046252;28;20060;-70
2023/09/27 01:10:14;;;;;;;23.95;20.58;;;;;;;16.40;100.00;101355.25;5049693;28;20048;-72
2023/09/27 01:12:41;;;;;;;30.40;21.65;;;;;;;16.39;100.00;101356.16;5031677;28;20068;-68
2023/09/27 01:15:08;;;;;;;22.90;20.15;;;;;;;16.38;100.00;101349.16;5049920;28;20052;-67
2023/09/27 01:17:36;;;;;;;27.17;22.20;;;;;;;16.36;100.00;101351.94;5034711;28;20515;-69
2023/09/27 01:20:06;;;;;;;28.27;21.98;;;;;;;16.35;100.00;101355.56;5058746;28;20654;-71
2023/09/27 01:22:33;;;;;;;23.25;20.25;;;;;;;16.33;100.00;101353.97;5048250;28;20048;-69
2023/09/27 01:25:02;;;;;;;26.17;23.30;;;;;;;16.34;100.00;101351.19;5047196;28;20056;-70
2023/09/27 01:27:30;;;;;;;28.27;23.50;;;;;;;16.35;100.00;101352.91;5043142;28;20064;-73
2023/09/27 01:29:57;;;;;;;25.30;21.17;;;;;;;16.32;100.00;101355.78;5048886;28;20044;-73
2023/09/27 01:32:25;;;;;;;24.48;20.92;;;;;;;16.29;100.00;101360.44;5031009;28;20098;-72
2023/09/27 01:34:55;;;;;;;30.40;22.73;;;;;;;16.25;100.00;101359.81;5029966;28;20045;-74
2023/09/27 01:37:24;;;;;;;25.88;21.02;;;;;;;16.22;100.00;101361.88;5064167;28;20083;-75
2023/09/27 01:39:53;;;;;;;28.73;22.55;;;;;;;16.16;100.00;101356.00;5057189;28;20052;-75
2023/09/27 01:42:22;;;;;;;39.38;24.80;;;;;;;16.14;100.00;101373.88;5032230;28;20132;-74
2023/09/27 01:44:51;;;;;;;29.80;22.67;;;;;;;16.09;100.00;101365.38;5043153;28;20049;-74
2023/09/27 01:47:19;;;;;;;31.40;24.48;;;;;;;16.09;100.00;101367.19;5051159;28;20123;-74
2023/09/27 01:49:46;;;;;;;30.13;23.15;;;;;;;16.07;100.00;101359.31;5048286;28;20056;-72
2023/09/27 01:52:14;;;;;;;29.10;23.60;;;;;;;16.08;100.00;101369.00;5061302;28;20080;-71
2023/09/27 01:54:41;;;;;;;33.45;23.15;;;;;;;16.06;100.00;101352.31;5054763;28;20105;-73
2023/09/27 01:57:11;;;;;;;31.27;23.80;;;;;;;16.06;100.00;101354.97;5016704;28;20501;-70
2023/09/27 01:59:38;;;;;;;24.83;22.17;;;;;;;16.05;100.00;101361.22;5063445;28;20041;-73
2023/09/27 02:02:07;;;;;;;27.85;22.95;;;;;;;16.01;100.00;101365.06;5027480;28;20049;-72
2023/09/27 02:04:36;;;;;;;27.92;22.73;;;;;;;15.99;100.00;101361.69;5031469;28;20057;-76
2023/09/27 02:07:03;;;;;;;30.38;22.52;;;;;;;15.96;100.00;101361.88;5048231;28;20135;-73
2023/09/27 02:09:31;;;;;;;28.42;22.55;;;;;;;15.93;100.00;101359.44;5032911;28;20580;-71
2023/09/27 02:11:59;;;;;;;30.33;21.27;;;;;;;15.89;100.00;101360.59;5046005;28;20095;-73
2023/09/27 02:14:27;;;;;;;30.10;23.00;;;;;;;15.85;100.00;101351.13;5068178;28;20048;-74
2023/09/27 02:16:55;;;;;;;27.27;22.88;;;;;;;15.85;100.00;101356.44;5033444;28;20344;-78
2023/09/27 02:19:22;;;;;;;25.42;21.90;;;;;;;15.84;100.00;101355.59;5029923;28;20090;-76
2023/09/27 02:21:49;;;;;;;30.80;24.65;;;;;;;15.85;100.00;101345.81;5045078;28;20459;-74
2023/09/27 02:24:17;;;;;;;33.33;23.85;;;;;;;15.84;100.00;101349.44;5043879;28;20095;-73
2023/09/27 02:26:44;;;;;;;31.02;23.65;;;;;;;15.83;100.00;101345.94;5025697;28;20500;-72
2023/09/27 02:29:12;;;;;;;27.02;22.33;;;;;;;15.80;100.00;101348.81;5033059;28;20100;-73
2023/09/27 02:31:39;;;;;;;31.85;24.15;;;;;;;15.78;100.00;101349.88;5048070;28;20139;-72
2023/09/27 02:34:08;;;;;;;28.77;23.70;;;;;;;15.74;100.00;101354.56;5016707;28;20060;-75
2023/09/27 02:36:38;;;;;;;23.50;20.90;;;;;;;15.73;100.00;101358.16;5028196;28;20093;-75
2023/09/27 02:39:10;;;;;;;26.58;22.65;;;;;;;15.72;100.00;101353.81;5031472;28;20069;-72
2023/09/27 02:41:39;;;;;;;26.85;22.52;;;;;;;15.68;100.00;101363.78;5052090;28;20048;-74
2023/09/27 02:44:06;;;;;;;25.27;21.60;;;;;;;15.66;100.00;101371.00;5067406;28;20605;-74
2023/09/27 02:46:34;;;;;;;25.15;22.42;;;;;;;15.64;100.00;101372.91;5065573;28;20106;-72
2023/09/27 02:49:01;;;;;;;27.95;22.35;;;;;;;15.64;100.00;101367.59;5050670;28;20057;-77
2023/09/27 02:51:28;;;;;;;31.65;23.25;;;;;;;15.63;100.00;101365.88;5046022;28;20048;-73
2023/09/27 02:53:56;;;;;;;31.67;25.55;;;;;;;15.65;100.00;101366.66;5045617;28;20147;-70
2023/09/27 02:56:23;;;;;;;27.73;23.98;;;;;;;15.62;100.00;101369.47;5069480;28;20094;-70
2023/09/27 02:58:51;;;;;;;29.65;23.90;;;;;;;15.58;100.00;101367.13;5047233;28;20076;-74
2023/09/27 03:01:19;;;;;;;25.58;22.77;;;;;;;15.53;100.00;101370.09;5061095;28;20138;-75
2023/09/27 03:03:48;;;;;;;29.33;24.35;;;;;;;15.53;100.00;101372.75;5063613;28;20095;-72
2023/09/27 03:06:16;;;;;;;33.13;23.48;;;;;;;15.52;100.00;101378.16;5064878;28;20084;-76
2023/09/27 03:08:43;;;;;;;33.47;27.38;;;;;;;15.56;100.00;101375.22;5053793;28;20087;-76
2023/09/27 03:11:12;;;;;;;33.83;27.17;;;;;;;15.60;100.00;101375.84;5069972;28;20128;-74
2023/09/27 03:13:40;;;;;;;31.20;25.73;;;;;;;15.60;100.00;101358.13;5054094;28;20060;-77
2023/09/27 03:16:08;;;;;;;31.42;24.75;;;;;;;15.60;100.00;101366.09;5067534;28;20152;-71
2023/09/27 03:18:35;;;;;;;27.48;24.10;;;;;;;15.56;100.00;101364.59;5053725;28;20059;-70
2023/09/27 03:21:03;;;;;;;28.60;22.85;;;;;;;15.55;100.00;101360.25;5030553;28;20056;-72
2023/09/27 03:23:30;;;;;;;27.92;23.35;;;;;;;15.53;100.00;101366.59;5061491;28;20064;-73
2023/09/27 03:26:00;;;;;;;24.92;21.35;;;;;;;15.49;100.00;101355.38;5042122;28;20102;-73
2023/09/27 03:28:28;;;;;;;28.50;22.08;;;;;;;15.48;100.00;101356.28;5067383;28;20053;-74
2023/09/27 03:30:56;;;;;;;30.05;23.33;;;;;;;15.50;100.00;101354.41;5050972;28;20040;-72
2023/09/27 03:33:23;;;;;;;27.45;24.23;;;;;;;15.54;100.00;101344.44;5069560;28;20075;-74
2023/09/27 03:35:51;;;;;;;29.63;25.30;;;;;;;15.58;100.00;101343.25;5047987;28;20049;-75
2023/09/27 03:38:21;;;;;;;32.80;27.17;;;;;;;15.59;100.00;101351.13;5065290;28;20103;-70
2023/09/27 03:40:48;;;;;;;31.00;26.48;;;;;;;15.57;100.00;101355.66;5052678;28;20640;-70
2023/09/27 03:43:17;;;;;;;29.30;24.55;;;;;;;15.53;100.00;101354.16;5036200;28;20102;-72
2023/09/27 03:45:44;;;;;;;31.17;25.67;;;;;;;15.53;100.00;101342.72;5055411;28;20045;-69
2023/09/27 03:48:13;;;;;;;27.48;24.48;;;;;;;15.50;100.00;101343.78;5050289;28;20688;-71
2023/09/27 03:50:40;;;;;;;32.72;25.10;;;;;;;15.52;100.00;101343.66;5047093;28;20172;-75
2023/09/27 03:53:07;;;;;;;30.67;25.67;;;;;;;15.51;100.00;101352.59;5069682;28;20052;-69
2023/09/27 03:55:35;;;;;;;34.53;27.75;;;;;;;15.48;100.00;101355.44;5034463;28;20139;-75
2023/09/27 03:58:03;;;;;;;32.75;26.63;;;;;;;15.47;100.00;101356.41;5055642;28;20053;-71
2023/09/27 04:00:30;;;;;;;27.42;23.60;;;;;;;15.44;100.00;101360.09;5039627;28;20080;-75
2023/09/27 04:02:57;;;;;;;30.88;25.38;;;;;;;15.41;100.00;101360.34;5050375;28;20080;-77
2023/09/27 04:05:26;;;;;;;27.90;24.83;;;;;;;15.40;100.00;101366.56;5014444;28;20040;-75
2023/09/27 04:07:54;;;;;;;28.65;25.42;;;;;;;15.35;100.00;101353.63;5033152;28;20061;-76
2023/09/27 04:10:21;;;;;;;29.58;25.00;;;;;;;15.33;100.00;101358.19;5032598;28;20065;-78
2023/09/27 04:12:48;;;;;;;27.75;24.80;;;;;;;15.31;100.00;101354.81;5049281;28;20080;-75
2023/09/27 04:15:17;;;;;;;30.88;24.38;;;;;;;15.30;100.00;101354.88;5050733;28;20529;-74
2023/09/27 04:17:45;;;;;;;30.50;22.77;;;;;;;15.31;100.00;101377.81;5052250;28;20037;-74
2023/09/27 04:20:16;;;;;;;32.67;26.38;;;;;;;15.29;100.00;101377.06;5049639;28;20125;-75
2023/09/27 04:22:45;;;;;;;33.72;25.67;;;;;;;15.24;100.00;101369.41;5030169;28;20076;-77
2023/09/27 04:25:14;;;;;;;27.90;24.23;;;;;;;15.22;100.00;101368.69;5040906;28;20053;-75
2023/09/27 04:27:45;;;;;;;29.10;25.70;;;;;;;15.18;100.00;101375.97;5050601;28;20098;-75
2023/09/27 04:30:19;;;;;;;27.90;24.10;;;;;;;15.15;100.00;101380.63;5045542;28;20059;-76
2023/09/27 04:32:50;;;;;;;30.17;24.35;;;;;;;15.14;100.00;101379.78;5046890;28;20105;-76
2023/09/27 04:35:19;;;;;;;27.48;23.30;;;;;;;15.12;100.00;101381.66;5044908;28;20072;-75
2023/09/27 04:37:48;;;;;;;27.98;24.40;;;;;;;15.08;100.00;101385.47;5045449;28;20052;-75
2023/09/27 04:40:16;;;;;;;25.80;23.13;;;;;;;15.05;100.00;101393.66;5051496;28;20455;-74
2023/09/27 04:42:46;;;;;;;24.75;22.00;;;;;;;15.03;100.00;101405.28;5009096;28;20416;-76
2023/09/27 04:45:15;;;;;;;30.88;23.45;;;;;;;15.02;100.00;101412.41;5032895;28;20438;-76
2023/09/27 04:47:44;;;;;;;26.55;22.75;;;;;;;15.01;100.00;101410.72;5049416;28;20123;-73
2023/09/27 04:50:15;;;;;;;28.63;22.98;;;;;;;15.00;100.00;101414.31;5047876;28;20072;-74
2023/09/27 04:52:43;;;;;;;27.00;23.45;;;;;;;14.99;100.00;101414.41;5026792;28;20523;-75
2023/09/27 04:55:13;;;;;;;32.38;24.95;;;;;;;14.97;100.00;101417.16;5066551;28;20040;-76
2023/09/27 04:57:40;;;;;;;27.20;24.27;;;;;;;14.96;100.00;101420.78;5067528;28;20072;-75
2023/09/27 05:00:18;;;;;;;26.25;23.40;;;;;;;14.96;100.00;101411.97;5068022;28;20460;-74
2023/09/27 05:02:46;;;;;;;33.40;23.10;;;;;;;14.97;100.00;101413.66;5038643;28;20037;-76
2023/09/27 05:05:16;;;;;;;28.77;22.88;;;;;;;14.97;100.00;101419.81;5043201;28;20123;-75
2023/09/27 05:07:46;;;;;;;28.63;22.13;;;;;;;14.94;100.00;101420.00;5066699;28;20044;-77
2023/09/27 05:10:15;;;;;;;24.85;21.80;;;;;;;14.96;100.00;101425.22;5017798;28;20147;-74
2023/09/27 05:12:42;;;;;;;25.70;22.25;;;;;;;14.97;100.00;101434.88;5051051;28;20989;-75
2023/09/27 05:15:12;;;;;;;27.05;23.38;;;;;;;14.99;100.00;101433.81;5048667;28;20053;-75
2023/09/27 05:17:40;;;;;;;29.80;22.73;;;;;;;15.00;100.00;101440.00;5042070;28;20049;-75
2023/09/27 05:20:13;;;;;;;31.80;23.02;;;;;;;15.01;100.00;101447.00;5066374;28;20580;-76
2023/09/27 05:22:42;;;;;;;27.92;22.05;;;;;;;15.00;100.00;101445.28;5063108;28;20048;-76
2023/09/27 05:25:10;;;;;;;25.30;21.13;;;;;;;15.02;100.00;101454.84;5033590;28;20056;-76
2023/09/27 05:27:39;;;;;;;24.52;21.95;;;;;;;15.04;100.00;101460.91;5058910;28;20107;-75
2023/09/27 05:30:14;;;;;;;28.90;23.15;;;;;;;15.10;100.00;101454.34;5033190;28;20083;-75
2023/09/27 05:32:46;;;;;;;25.42;22.42;;;;;;;15.13;100.00;101456.78;5063344;28;20079;-75
2023/09/27 05:35:13;;;;;;;25.63;22.63;;;;;;;15.15;100.00;101453.09;5040118;28;20087;-80
2023/09/27 05:37:42;;;;;;;26.80;23.20;;;;;;;15.21;100.00;101462.44;5045191;28;20076;-75
2023/09/27 05:40:10;;;;;;;32.08;23.23;;;;;;;15.24;100.00;101458.75;5047621;28;20392;-75
2023/09/27 05:42:38;;;;;;;27.50;23.05;;;;;;;15.28;100.00;101463.75;5045776;28;20080;-74
2023/09/27 05:45:11;;;;;;;31.33;25.70;;;;;;;15.30;100.00;101468.97;5051001;28;20052;-75
2023/09/27 05:47:39;;;;;;;33.78;24.88;;;;;;;15.31;100.00;101466.22;5047647;28;20052;-74
2023/09/27 05:50:11;;;;;;;30.85;23.50;;;;;;;15.32;100.00;101475.03;5045483;28;20055;-74
2023/09/27 05:52:43;;;;;;;33.90;24.00;;;;;;;15.34;100.00;101473.97;5043857;28;20572;-73
2023/09/27 05:55:15;;;;;;;26.75;23.58;;;;;;;15.37;100.00;101479.06;5065564;28;20037;-74
2023/09/27 05:58:35;;;;;;;30.02;23.65;;;;;;;15.39;100.00;101485.13;5048246;28;20052;-76
2023/09/27 06:01:07;;;;;;;32.88;23.63;;;;;;;15.41;100.00;101491.19;5065962;28;20055;-76
2023/09/27 06:03:41;;;;;;;29.27;23.90;;;;;;;15.48;100.00;101498.75;5014914;28;20037;-74
2023/09/27 06:06:13;;;;;;;31.23;23.95;;;;;;;15.54;100.00;101493.06;5064944;28;20080;-75
2023/09/27 06:08:42;;;;;;;28.90;22.95;;;;;;;15.62;100.00;101486.25;5028749;28;20090;-76
2023/09/27 06:11:09;;;;;;;27.40;23.00;;;;;;;15.70;100.00;101499.91;5062983;28;20048;-75
2023/09/27 06:13:38;;;;;;;33.30;23.83;;;;;;;15.83;100.00;101499.94;5032309;28;20389;-74
2023/09/27 06:16:17;;;;;;;30.90;23.42;;;;;;;15.92;100.00;101496.66;5047341;28;20131;-75
2023/09/27 06:18:45;;;;;;;29.70;23.73;;;;;;;16.03;100.00;101500.41;5031519;28;20057;-75
2023/09/27 06:21:12;;;;;;;30.05;22.08;;;;;;;16.12;100.00;101494.44;5064281;28;20068;-76
2023/09/27 06:23:39;;;;;;;30.88;22.42;;;;;;;16.21;100.00;101493.84;5041947;28;20055;-75
2023/09/27 06:26:07;;;;;;;28.27;22.30;;;;;;;16.29;100.00;101490.66;5038672;28;20167;-77
2023/09/27 06:28:37;;;;;;;25.80;23.17;;;;;;;16.38;100.00;101492.66;5028925;28;20605;-74
2023/09/27 06:31:08;;;;;;;36.60;24.80;;;;;;;16.47;100.00;101500.00;5047951;28;20072;-75
2023/09/27 06:33:39;;;;;;;25.83;22.00;;;;;;;16.60;100.00;101503.50;5031161;28;20102;-74
2023/09/27 06:36:08;;;;;;;27.20;23.05;;;;;;;16.72;100.00;101507.16;5026644;28;20111;-75
2023/09/27 06:38:35;;;;;;;27.70;22.63;;;;;;;16.83;100.00;101501.91;5060456;28;20052;-75
2023/09/27 06:41:04;;;;;;;30.35;22.42;;;;;;;16.94;100.00;101509.13;5032098;28;20118;-74
2023/09/27 06:43:31;;;;;;;37.13;22.33;;;;;;;17.03;100.00;101504.97;5030043;28;20199;-75
2023/09/27 06:46:03;;;;;;;33.30;21.40;;;;;;;17.18;100.00;101511.81;5067982;28;20102;-73
2023/09/27 06:48:30;;;;;;;33.70;22.10;;;;;;;17.30;100.00;101510.09;5037868;28;20442;-73
2023/09/27 06:50:58;;;;;;;27.00;21.17;;;;;;;17.43;100.00;101511.75;5032359;28;20106;-74
2023/09/27 06:53:26;;;;;;;30.35;23.23;;;;;;;17.48;100.00;101506.06;5049392;28;20114;-73
2023/09/27 06:55:59;;;;;;;35.20;22.50;;;;;;;17.64;100.00;101508.44;5034124;28;20102;-75
2023/09/27 06:58:27;;;;;;;34.67;23.98;;;;;;;17.72;100.00;101508.72;5031971;28;20125;-75
2023/09/27 07:00:55;;;;;;;36.75;26.48;;;;;;;17.74;100.00;101506.81;5029018;28;20106;-74
2023/09/27 07:03:25;;;;;;;31.13;22.20;;;;;;;17.91;100.00;101510.88;5034688;28;20470;-77
2023/09/27 07:05:53;;;;;;;30.73;22.52;;;;;;;18.02;100.00;101510.06;5048927;28;20091;-77
2023/09/27 07:08:21;;;;;;;34.75;22.40;;;;;;;18.11;100.00;101499.56;5013917;28;20041;-74
2023/09/27 07:10:48;;;;;;;35.17;21.67;;;;;;;18.24;100.00;101504.78;5034336;28;20072;-76
2023/09/27 07:13:17;;;;;;;32.78;23.38;;;;;;;18.33;100.00;101501.41;5013974;28;20111;-77
2023/09/27 07:15:45;;;;;;;30.05;22.27;;;;;;;18.39;100.00;101505.41;5033339;28;20482;-74
2023/09/27 07:18:13;;;;;;;38.28;24.55;;;;;;;18.44;100.00;101503.22;5033330;28;20143;-74
2023/09/27 07:20:41;;;;;;;29.05;21.83;;;;;;;18.51;100.00;101493.78;5031741;28;20076;-75
2023/09/27 07:23:14;;;;;;;35.33;23.55;;;;;;;18.54;100.00;101504.19;5030825;28;20161;-76
2023/09/27 07:25:44;;;;;;;28.10;22.77;;;;;;;18.59;100.00;101511.84;5063896;28;20549;-74
2023/09/27 07:28:11;;;;;;;28.77;22.05;;;;;;;18.70;100.00;101506.56;5051519;28;20429;-76
2023/09/27 07:30:38;;;;;;;28.98;21.95;;;;;;;18.88;100.00;101509.59;5047656;28;20132;-69
2023/09/27 07:33:09;;;;;;;30.48;22.35;;;;;;;19.06;100.00;101502.75;5049284;28;20083;-67
2023/09/27 07:35:42;;;;;;;29.52;22.67;;;;;;;19.20;100.00;101498.97;5068632;28;20095;-70
2023/09/27 07:38:10;;;;;;;29.70;22.08;;;;;;;19.35;100.00;101494.19;5048447;28;20095;-71
2023/09/27 07:40:38;;;;;;;35.47;22.67;;;;;;;19.45;100.00;101496.00;5032821;28;20075;-69
2023/09/27 07:43:06;;;;;;;28.33;21.73;;;;;;;19.62;100.00;101499.09;5065176;28;20118;-68
2023/09/27 07:45:36;;;;;;;26.55;20.67;;;;;;;19.72;100.00;101492.00;5078982;28;20052;-71
2023/09/27 07:48:04;;;;;;;28.60;23.45;;;;;;;19.78;99.43;101496.03;5050484;28;20092;-70
2023/09/27 07:50:34;;;;;;;46.53;22.67;;;;;;;19.80;99.50;101499.41;5049818;28;20080;-72
2023/09/27 07:53:08;;;;;;;32.70;24.85;;;;;;;19.81;98.77;101506.44;5063595;28;20068;-77
2023/09/27 07:55:51;;;;;;;33.97;24.02;;;;;;;20.00;98.71;101501.25;5044545;28;20084;-75
2023/09/27 07:58:18;;;;;;;31.98;21.08;;;;;;;20.22;97.17;101502.94;5050359;28;20049;-75
2023/09/27 08:00:45;;;;;;;27.40;20.70;;;;;;;20.38;96.14;101497.09;5033163;28;20080;-75
2023/09/27 08:03:14;;;;;;;26.45;22.05;;;;;;;20.48;94.65;101493.50;5051360;28;20068;-76
2023/09/27 08:05:45;;;;;;;35.13;22.58;;;;;;;20.55;94.39;101491.16;5032668;28;20091;-74
2023/09/27 08:08:13;;;;;;;31.30;19.23;;;;;;;20.72;94.31;101497.72;5039622;28;20053;-76
2023/09/27 08:10:47;;;;;;;24.42;19.17;;;;;;;20.86;93.86;101500.03;4997955;28;20143;-77
2023/09/27 08:13:15;;;;;;;23.98;19.45;;;;;;;20.99;93.11;101499.78;5028562;28;20049;-76
2023/09/27 08:15:50;;;;;;;26.77;19.48;;;;;;;21.12;92.02;101503.06;5032129;28;20510;-76
2023/09/27 08:18:18;;;;;;;26.13;20.10;;;;;;;21.21;90.07;101510.28;5030875;28;20037;-76
2023/09/27 08:20:45;;;;;;;23.50;19.05;;;;;;;21.32;90.14;101503.97;5062489;28;20697;-75
2023/09/27 08:23:14;;;;;;;27.08;19.70;;;;;;;21.48;89.17;101504.28;5064332;28;20046;-78
2023/09/27 08:25:41;;;;;;;35.05;21.27;;;;;;;21.49;87.58;101502.44;5022590;28;20072;-76
2023/09/27 08:28:09;;;;;;;28.80;18.60;;;;;;;21.57;87.69;101499.03;5016861;28;20044;-77
2023/09/27 08:30:36;;;;;;;24.23;17.45;;;;;;;21.71;86.52;101506.69;5049394;28;20048;-76
2023/09/27 08:33:04;;;;;;;19.95;15.40;;;;;;;21.89;86.72;101504.13;5046958;28;20049;-77
2023/09/27 08:35:32;;;;;;;22.25;15.90;;;;;;;22.06;86.73;101505.22;5033992;28;20128;-77
2023/09/27 08:37:59;;;;;;;29.55;16.88;;;;;;;22.23;85.38;101505.34;5034224;28;20094;-75
2023/09/27 08:40:27;;;;;;;27.92;17.70;;;;;;;;;;5048608;28;20117;-76
2023/09/27 08:42:57;;;;;;;20.25;15.40;;;;;;;22.51;83.18;101497.38;5064017;28;20041;-75
2023/09/27 08:45:24;;;;;;;23.20;15.73;;;;;;;22.62;81.18;101499.88;5048891;28;20110;-75
2023/09/27 08:47:53;;;;;;;24.10;14.10;;;;;;;22.54;79.76;101499.78;5038494;28;20076;-76
2023/09/27 08:50:21;;;;;;;17.75;14.27;;;;;;;22.78;79.91;101506.44;5066152;28;20056;-76
2023/09/27 08:52:49;;;;;;;22.23;15.43;;;;;;;22.93;78.63;101499.63;5048913;28;20068;-75
2023/09/27 08:55:18;;;;;;;16.80;12.38;;;;;;;23.00;78.80;101506.94;5064179;28;20068;-76
2023/09/27 08:57:47;;;;;;;22.55;12.23;;;;;;;23.12;76.87;101510.25;5014178;28;20146;-75
2023/09/27 09:00:25;;;;;;;21.20;11.65;;;;;;;23.19;76.82;101506.00;5047161;28;20135;-76
2023/09/27 09:03:02;;;;;;;16.55;11.10;;;;;;;23.34;75.68;101508.16;5021171;28;20131;-77
2023/09/27 09:05:30;;;;;;;16.90;12.73;;;;;;;23.37;73.92;101503.31;5027182;28;20048;-75
2023/09/27 09:07:59;;;;;;;18.42;11.52;;;;;;;23.43;73.80;101501.84;5037911;28;20103;-76
2023/09/27 09:10:28;;;;;;;15.40;10.73;;;;;;;23.45;71.94;101507.91;5022038;28;20150;-74
2023/09/27 09:13:00;;;;;;;15.50;10.48;;;;;;;23.39;72.10;101504.00;5038706;28;20098;-75
2023/09/27 09:15:29;;;;;;;17.92;10.52;;;;;;;23.52;71.68;101500.94;5040391;28;20045;-75
2023/09/27 09:18:00;;;;;;;19.45;10.05;;;;;;;23.68;71.74;101505.63;5054692;28;20052;-77
2023/09/27 09:20:31;;;;;;;16.58;9.73;;;;;;;23.90;71.61;101499.78;5025327;28;20139;-77
2023/09/27 09:23:03;;;;;;;17.80;11.38;;;;;;;23.94;71.22;101501.16;5029231;28;20052;-75
2023/09/27 09:25:31;;;;;;;20.58;11.90;;;;;;;23.96;70.74;101498.34;5030018;28;20072;-79
2023/09/27 09:28:04;;;;;;;12.18;10.80;;;;;;;24.14;70.83;101488.38;5025560;28;20139;-75
2023/09/27 09:30:39;;;;;;;12.85;9.18;;;;;;;24.39;70.33;101494.78;5048787;28;20055;-77
2023/09/27 09:33:16;;;;;;;11.02;8.65;;;;;;;24.54;68.82;101489.63;5044342;28;20123;-77
2023/09/27 09:35:43;;;;;;;13.15;7.78;;;;;;;24.59;67.27;101489.19;5040887;28;20556;-77
2023/09/27 09:38:12;;;;;;;8.20;7.15;;;;;;;24.66;66.83;101491.03;5052160;28;20056;-76
2023/09/27 09:40:59;;;;;;;19.02;7.63;;;;;;;24.72;64.67;101489.53;5069860;28;20135;-76
2023/09/27 09:43:33;;;;;;;11.98;8.13;;;;;;;24.64;64.94;101487.69;5039646;28;20130;-75
2023/09/27 09:46:03;;;;;;;17.88;8.63;;;;;;;24.80;64.83;101483.34;5028125;28;20068;-75
2023/09/27 09:48:33;;;;;;;14.23;8.30;;;;;;;24.91;64.69;101483.06;5048761;28;20083;-76
2023/09/27 09:51:07;;;;;;;14.00;8.25;;;;;;;25.06;64.16;101481.44;5038845;28;20064;-75
2023/09/27 09:53:40;;;;;;;13.57;9.23;;;;;;;25.19;64.02;101475.59;5028873;28;20150;-76
2023/09/27 09:56:09;;;;;;;16.08;8.43;;;;;;;25.28;63.52;101480.00;5037998;28;20068;-76
2023/09/27 09:58:42;;;;;;;9.77;8.00;;;;;;;25.36;63.31;101473.78;5022241;28;20140;-77
2023/09/27 10:01:13;;;;;;;14.68;8.07;;;;;;;25.48;63.21;101470.56;5020059;28;20562;-76
2023/09/27 10:03:47;;;;;;;16.67;8.70;;;;;;;25.58;62.83;101470.44;5023509;28;20049;-76
2023/09/27 10:06:22;;;;;;;13.52;7.50;;;;;;;25.59;62.62;101469.41;5031741;28;20060;-76
2023/09/27 10:09:13;;;;;;;10.52;7.82;;;;;;;25.64;61.56;101472.44;5031539;28;20110;-77
2023/09/27 10:12:02;;;;;;;10.95;7.45;;;;;;;25.87;61.62;101463.72;5039126;28;20060;-76
2023/09/27 10:14:29;;;;;;;13.65;7.57;;;;;;;25.92;61.09;101464.88;5029219;28;20087;-76
2023/09/27 10:16:57;;;;;;;12.63;7.82;;;;;;;25.98;60.15;101457.94;5047710;28;20064;-75
2023/09/27 10:19:28;;;;;;;12.90;6.30;;;;;;;26.02;60.29;101448.50;5046258;28;20147;-74
2023/09/27 10:22:07;;;;;;;9.98;7.25;;;;;;;26.12;59.81;101448.34;5023029;28;20052;-75
2023/09/27 10:24:36;;;;;;;10.93;6.68;;;;;;;26.23;58.85;101450.66;5000719;28;20175;-77
2023/09/27 10:27:04;;;;;;;14.13;6.65;;;;;;;26.28;58.38;101445.56;5035853;28;20727;-75
2023/09/27 10:30:00;;;;;;;9.98;5.43;;;;;;;26.27;56.38;101442.03;5037716;28;20103;-75
2023/09/27 10:32:28;;;;;;;15.15;5.35;;;;;;;26.32;55.42;101446.09;5048766;28;20065;-77
2023/09/27 10:34:56;;;;;;;8.48;5.30;;;;;;;26.52;55.97;101441.97;5048611;28;20067;-74
2023/09/27 10:37:57;;;;;;;9.35;4.72;;;;;;;26.67;55.13;101437.53;5029562;28;20095;-75
2023/09/27 10:40:25;;;;;;;5.72;4.43;;;;;;;26.88;54.68;101445.00;5022505;28;20132;-74
2023/09/27 10:42:52;;;;;;;6.72;4.30;;;;;;;26.97;53.16;101433.16;5030185;28;20599;-78
2023/09/27 10:45:21;;;;;;;13.13;5.05;;;;;;;27.16;52.80;101437.28;5037832;28;20140;-77
2023/09/27 10:47:49;;;;;;;15.18;5.43;;;;;;;27.34;53.09;101436.16;5012937;28;20083;-75
2023/09/27 10:50:28;;;;;;;13.32;5.78;;;;;;;27.61;53.15;101434.75;5063087;28;20076;-74
2023/09/27 10:52:57;;;;;;;9.15;6.45;;;;;;;27.55;52.60;101435.47;5040835;28;20079;-74
2023/09/27 10:55:24;;;;;;;8.82;6.03;;;;;;;27.69;52.46;101424.69;5038421;28;20048;-75
2023/09/27 10:57:52;;;;;;;12.48;6.82;;;;;;;27.81;51.42;101416.16;5061015;28;20076;-75
2023/09/27 11:00:21;;;;;;;10.35;6.05;;;;;;;27.97;51.71;101416.84;5044461;28;20048;-74
2023/09/27 11:02:48;;;;;;;7.28;5.70;;;;;;;28.09;50.57;101425.31;5029015;28;20106;-74
2023/09/27 11:05:23;;;;;;;13.48;5.80;;;;;;;28.17;50.12;101425.25;5061241;28;20658;-77
2023/09/27 11:07:51;;;;;;;;;;;;;;;28.43;50.11;101418.53;5043338;28;20048;-78
2023/09/27 11:10:32;;;;;;;10.90;6.07;;;;;;;28.62;49.74;101408.97;5042789;28;19959;-75
2023/09/27 11:13:11;;;;;;;13.90;5.90;;;;;;;28.76;48.56;101408.94;5042863;28;20159;-75
2023/09/27 11:15:40;;;;;;;11.13;4.97;;;;;;;29.04;47.98;101410.09;5024392;28;20063;-78
2023/09/27 11:18:08;;;;;;;10.00;5.60;;;;;;;29.15;47.63;101405.03;5029789;28;20072;-77